sensor_id;sensor_type;location;lat;lon;timestamp;P1;durP1;ratioP1;P2;durP2;ratioP2
12721;SDS011;6425;50.316;8.114;2024-02-23T00:00:00;1.5;;;1.5;;
12721;SDS011;6425;50.316;8.114;2024-02-23T00:03:00;4;;;3.8;;
12721;SDS011;6425;50.316;8.114;2024-02-23T00:06:00;4;;;3.8;;
12721;SDS011;6425;50.316;8.114;2024-02-23T00:09:00;3.1;;;2.9;;
12721;SDS011;6425;50.316;8.114;2024-02-23T00:12:01;3.1;;;2.9;;
12721;SDS011;6425;50.316;8.114;2024-02-23T00:15:00;6.2;;;5.9;;
12721;SDS011;6425;50.316;8.114;2024-02-23T00:18:00;3.3;;;3.1;;
12721;SDS011;6425;50.316;8.114;2024-02-23T00:21:00;3.3;;;3.1;;
12721;SDS011;6425;50.316;8.114;2024-02-23T00:24:00;3.4;;;3.2;;
12721;SDS011;6425;50.316;8.114;2024-02-23T00:27:00;3.4;;;3.2;;
12721;SDS011;6425;50.316;8.114;2024-02-23T00:30:00;2.6;;;2.4;;
12721;SDS011;6425;50.316;8.114;2024-02-23T00:33:00;5.5;;;5.2;;
12721;SDS011;6425;50.316;8.114;2024-02-23T00:36:00;5.5;;;5.2;;
12721;SDS011;6425;50.316;8.114;2024-02-23T00:39:00;1.9;;;1.8;;
12721;SDS011;6425;50.316;8.114;2024-02-23T00:42:00;1.9;;;1.8;;
12721;SDS011;6425;50.316;8.114;2024-02-23T00:45:00;1;;;1;;
12721;SDS011;6425;50.316;8.114;2024-02-23T00:48:00;1.7;;;1.6;;
12721;SDS011;6425;50.316;8.114;2024-02-23T00:51:00;1.7;;;1.6;;
12721;SDS011;6425;50.316;8.114;2024-02-23T00:54:00;1.6;;;1.3;;
12721;SDS011;6425;50.316;8.114;2024-02-23T00:57:00;1.6;;;1.3;;
12721;SDS011;6425;50.316;8.114;2024-02-23T01:00:00;0.9;;;0.3;;
12721;SDS011;6425;50.316;8.114;2024-02-23T01:03:00;0.9;;;0.3;;
12721;SDS011;6425;50.316;8.114;2024-02-23T01:06:00;0.9;;;0.3;;
12721;SDS011;6425;50.316;8.114;2024-02-23T01:09:00;1.5;;;1.4;;
12721;SDS011;6425;50.316;8.114;2024-02-23T01:12:01;1.5;;;1.4;;
12721;SDS011;6425;50.316;8.114;2024-02-23T01:15:00;0.6;;;0.5;;
12721;SDS011;6425;50.316;8.114;2024-02-23T01:18:00;1;;;0.8;;
12721;SDS011;6425;50.316;8.114;2024-02-23T01:21:00;1;;;0.8;;
12721;SDS011;6425;50.316;8.114;2024-02-23T01:24:00;4.1;;;3.9;;
12721;SDS011;6425;50.316;8.114;2024-02-23T01:27:00;4.1;;;3.9;;
12721;SDS011;6425;50.316;8.114;2024-02-23T01:30:00;8.7;;;8.1;;
12721;SDS011;6425;50.316;8.114;2024-02-23T01:33:00;5.4;;;5.2;;
12721;SDS011;6425;50.316;8.114;2024-02-23T01:36:00;5.4;;;5.2;;
12721;SDS011;6425;50.316;8.114;2024-02-23T01:39:00;5.2;;;4.9;;
12721;SDS011;6425;50.316;8.114;2024-02-23T01:42:00;5.2;;;4.9;;
12721;SDS011;6425;50.316;8.114;2024-02-23T01:45:00;2.6;;;2.4;;
12721;SDS011;6425;50.316;8.114;2024-02-23T01:48:01;1.3;;;1.2;;
12721;SDS011;6425;50.316;8.114;2024-02-23T01:51:00;1.3;;;1.2;;
12721;SDS011;6425;50.316;8.114;2024-02-23T01:54:00;6.4;;;6.1;;
12721;SDS011;6425;50.316;8.114;2024-02-23T01:57:00;6.4;;;6.1;;
12721;SDS011;6425;50.316;8.114;2024-02-23T02:00:00;2.7;;;1.2;;
12721;SDS011;6425;50.316;8.114;2024-02-23T02:03:00;2.6;;;0.8;;
12721;SDS011;6425;50.316;8.114;2024-02-23T02:06:00;2.6;;;0.8;;
12721;SDS011;6425;50.316;8.114;2024-02-23T02:09:00;6;;;1.2;;
12721;SDS011;6425;50.316;8.114;2024-02-23T02:12:00;2.6;;;0.9;;
12721;SDS011;6425;50.316;8.114;2024-02-23T02:15:00;2.6;;;0.9;;
12721;SDS011;6425;50.316;8.114;2024-02-23T02:18:00;1.4;;;1.1;;
12721;SDS011;6425;50.316;8.114;2024-02-23T02:21:00;1.4;;;1.1;;
12721;SDS011;6425;50.316;8.114;2024-02-23T02:24:00;3.5;;;1.4;;
12721;SDS011;6425;50.316;8.114;2024-02-23T02:27:00;5;;;2.7;;
12721;SDS011;6425;50.316;8.114;2024-02-23T02:30:00;5;;;2.7;;
12721;SDS011;6425;50.316;8.114;2024-02-23T02:33:00;3.6;;;3.4;;
12721;SDS011;6425;50.316;8.114;2024-02-23T02:36:00;3.6;;;3.4;;
12721;SDS011;6425;50.316;8.114;2024-02-23T02:39:00;3.3;;;2;;
12721;SDS011;6425;50.316;8.114;2024-02-23T02:42:00;1.1;;;1.1;;
12721;SDS011;6425;50.316;8.114;2024-02-23T02:45:00;1.1;;;1.1;;
12721;SDS011;6425;50.316;8.114;2024-02-23T02:48:00;3.7;;;1.7;;
12721;SDS011;6425;50.316;8.114;2024-02-23T02:51:01;3.7;;;1.7;;
12721;SDS011;6425;50.316;8.114;2024-02-23T02:54:00;2.6;;;1.9;;
12721;SDS011;6425;50.316;8.114;2024-02-23T02:57:00;3.5;;;0.9;;
12721;SDS011;6425;50.316;8.114;2024-02-23T03:00:00;3.5;;;0.9;;
12721;SDS011;6425;50.316;8.114;2024-02-23T03:03:00;1.9;;;0.7;;
12721;SDS011;6425;50.316;8.114;2024-02-23T03:06:00;1.9;;;0.7;;
12721;SDS011;6425;50.316;8.114;2024-02-23T03:09:00;2.4;;;2.2;;
12721;SDS011;6425;50.316;8.114;2024-02-23T03:12:00;2.4;;;1.4;;
12721;SDS011;6425;50.316;8.114;2024-02-23T03:15:02;2.4;;;1.4;;
12721;SDS011;6425;50.316;8.114;2024-02-23T03:18:00;2.6;;;2.3;;
12721;SDS011;6425;50.316;8.114;2024-02-23T03:21:00;2.6;;;2.3;;
12721;SDS011;6425;50.316;8.114;2024-02-23T03:24:00;10.3;;;9.7;;
12721;SDS011;6425;50.316;8.114;2024-02-23T03:27:00;2.5;;;0.9;;
12721;SDS011;6425;50.316;8.114;2024-02-23T03:30:00;2.5;;;0.9;;
12721;SDS011;6425;50.316;8.114;2024-02-23T03:33:00;4.5;;;1.9;;
12721;SDS011;6425;50.316;8.114;2024-02-23T03:36:00;4.5;;;1.9;;
12721;SDS011;6425;50.316;8.114;2024-02-23T03:39:00;4.4;;;1.9;;
12721;SDS011;6425;50.316;8.114;2024-02-23T03:42:00;3;;;0.9;;
12721;SDS011;6425;50.316;8.114;2024-02-23T03:45:00;3;;;0.9;;
12721;SDS011;6425;50.316;8.114;2024-02-23T03:48:00;4.1;;;1;;
12721;SDS011;6425;50.316;8.114;2024-02-23T03:51:00;4.1;;;1;;
12721;SDS011;6425;50.316;8.114;2024-02-23T03:54:00;6.6;;;1.7;;
12721;SDS011;6425;50.316;8.114;2024-02-23T03:57:00;5.6;;;1.1;;
12721;SDS011;6425;50.316;8.114;2024-02-23T04:00:00;5.6;;;1.1;;
12721;SDS011;6425;50.316;8.114;2024-02-23T04:03:00;3.7;;;0.9;;
12721;SDS011;6425;50.316;8.114;2024-02-23T04:06:00;3.7;;;0.9;;
12721;SDS011;6425;50.316;8.114;2024-02-23T04:09:00;4;;;0.8;;
12721;SDS011;6425;50.316;8.114;2024-02-23T04:12:00;3.7;;;1;;
12721;SDS011;6425;50.316;8.114;2024-02-23T04:15:00;3.7;;;1;;
12721;SDS011;6425;50.316;8.114;2024-02-23T04:18:01;3.6;;;0.7;;
12721;SDS011;6425;50.316;8.114;2024-02-23T04:21:00;3.6;;;0.7;;
12721;SDS011;6425;50.316;8.114;2024-02-23T04:24:00;3.9;;;0.9;;
12721;SDS011;6425;50.316;8.114;2024-02-23T04:27:00;3.1;;;1.2;;
12721;SDS011;6425;50.316;8.114;2024-02-23T04:30:00;3.1;;;1.2;;
12721;SDS011;6425;50.316;8.114;2024-02-23T04:33:00;3.6;;;0.6;;
12721;SDS011;6425;50.316;8.114;2024-02-23T04:36:00;3.6;;;0.6;;
12721;SDS011;6425;50.316;8.114;2024-02-23T04:39:00;4.1;;;0.8;;
12721;SDS011;6425;50.316;8.114;2024-02-23T04:42:00;3.7;;;0.7;;
12721;SDS011;6425;50.316;8.114;2024-02-23T04:45:00;3.7;;;0.7;;
12721;SDS011;6425;50.316;8.114;2024-02-23T04:48:00;1.6;;;1.1;;
12721;SDS011;6425;50.316;8.114;2024-02-23T04:51:00;1.9;;;1.7;;
12721;SDS011;6425;50.316;8.114;2024-02-23T04:54:00;2.1;;;1.9;;
12721;SDS011;6425;50.316;8.114;2024-02-23T04:57:00;2.6;;;1;;
12721;SDS011;6425;50.316;8.114;2024-02-23T05:00:00;2.6;;;1;;
12721;SDS011;6425;50.316;8.114;2024-02-23T05:03:00;2.3;;;0.8;;
12721;SDS011;6425;50.316;8.114;2024-02-23T05:06:00;2.3;;;0.6;;
12721;SDS011;6425;50.316;8.114;2024-02-23T05:09:00;2.3;;;0.6;;
12721;SDS011;6425;50.316;8.114;2024-02-23T05:12:00;3.7;;;1.1;;
12721;SDS011;6425;50.316;8.114;2024-02-23T05:15:00;3.7;;;1.1;;
12721;SDS011;6425;50.316;8.114;2024-02-23T05:18:00;3.2;;;0.9;;
12721;SDS011;6425;50.316;8.114;2024-02-23T05:21:00;2.8;;;1.1;;
12721;SDS011;6425;50.316;8.114;2024-02-23T05:24:00;2.8;;;1.1;;
12721;SDS011;6425;50.316;8.114;2024-02-23T05:27:00;2.4;;;0.8;;
12721;SDS011;6425;50.316;8.114;2024-02-23T05:30:00;2.4;;;0.8;;
12721;SDS011;6425;50.316;8.114;2024-02-23T05:33:00;3.2;;;0.9;;
12721;SDS011;6425;50.316;8.114;2024-02-23T05:36:00;2.8;;;0.9;;
12721;SDS011;6425;50.316;8.114;2024-02-23T05:39:00;2.8;;;0.9;;
12721;SDS011;6425;50.316;8.114;2024-02-23T05:42:00;3.8;;;1.1;;
12721;SDS011;6425;50.316;8.114;2024-02-23T05:45:00;3.8;;;1.1;;
12721;SDS011;6425;50.316;8.114;2024-02-23T05:48:00;6;;;1.1;;
12721;SDS011;6425;50.316;8.114;2024-02-23T05:51:00;4.3;;;1.7;;
12721;SDS011;6425;50.316;8.114;2024-02-23T05:54:00;4.3;;;1.7;;
12721;SDS011;6425;50.316;8.114;2024-02-23T05:57:00;3.4;;;1.6;;
12721;SDS011;6425;50.316;8.114;2024-02-23T06:00:00;3.4;;;1.6;;
12721;SDS011;6425;50.316;8.114;2024-02-23T06:03:00;3.2;;;1.6;;
12721;SDS011;6425;50.316;8.114;2024-02-23T06:06:00;3.5;;;1.9;;
12721;SDS011;6425;50.316;8.114;2024-02-23T06:09:00;3.5;;;1.9;;
12721;SDS011;6425;50.316;8.114;2024-02-23T06:12:00;3;;;1.6;;
12721;SDS011;6425;50.316;8.114;2024-02-23T06:15:00;3;;;1.6;;
12721;SDS011;6425;50.316;8.114;2024-02-23T06:18:00;2.8;;;1.9;;
12721;SDS011;6425;50.316;8.114;2024-02-23T06:21:00;2.9;;;1.3;;
12721;SDS011;6425;50.316;8.114;2024-02-23T06:24:00;2.9;;;1.3;;
12721;SDS011;6425;50.316;8.114;2024-02-23T06:27:00;2.8;;;1.2;;
12721;SDS011;6425;50.316;8.114;2024-02-23T06:30:00;2.8;;;1.2;;
12721;SDS011;6425;50.316;8.114;2024-02-23T06:33:00;4.2;;;1.1;;
12721;SDS011;6425;50.316;8.114;2024-02-23T06:36:00;2.7;;;1.2;;
12721;SDS011;6425;50.316;8.114;2024-02-23T06:39:00;2.7;;;1.2;;
12721;SDS011;6425;50.316;8.114;2024-02-23T06:42:02;3.5;;;1.2;;
12721;SDS011;6425;50.316;8.114;2024-02-23T06:45:00;3.5;;;1.2;;
12721;SDS011;6425;50.316;8.114;2024-02-23T06:48:00;5.5;;;1.8;;
12721;SDS011;6425;50.316;8.114;2024-02-23T06:51:00;4.2;;;2.3;;
12721;SDS011;6425;50.316;8.114;2024-02-23T06:54:00;4.2;;;2.3;;
12721;SDS011;6425;50.316;8.114;2024-02-23T06:57:00;2.7;;;2;;
12721;SDS011;6425;50.316;8.114;2024-02-23T07:00:00;2.7;;;2;;
12721;SDS011;6425;50.316;8.114;2024-02-23T07:03:00;5.6;;;1.9;;
12721;SDS011;6425;50.316;8.114;2024-02-23T07:06:00;5.8;;;2.5;;
12721;SDS011;6425;50.316;8.114;2024-02-23T07:09:00;5.8;;;2.5;;
12721;SDS011;6425;50.316;8.114;2024-02-23T07:12:00;2.9;;;1.8;;
12721;SDS011;6425;50.316;8.114;2024-02-23T07:15:00;2.9;;;1.8;;
12721;SDS011;6425;50.316;8.114;2024-02-23T07:18:00;3.4;;;1.7;;
12721;SDS011;6425;50.316;8.114;2024-02-23T07:21:00;2.9;;;1.9;;
12721;SDS011;6425;50.316;8.114;2024-02-23T07:24:00;2.9;;;1.9;;
12721;SDS011;6425;50.316;8.114;2024-02-23T07:27:00;3;;;2.1;;
12721;SDS011;6425;50.316;8.114;2024-02-23T07:30:00;3;;;2.1;;
12721;SDS011;6425;50.316;8.114;2024-02-23T07:33:00;8.6;;;2.7;;
12721;SDS011;6425;50.316;8.114;2024-02-23T07:36:00;3.9;;;2;;
12721;SDS011;6425;50.316;8.114;2024-02-23T07:39:00;3.9;;;2;;
12721;SDS011;6425;50.316;8.114;2024-02-23T07:42:02;5.9;;;2.6;;
12721;SDS011;6425;50.316;8.114;2024-02-23T07:45:00;4.8;;;2.6;;
12721;SDS011;6425;50.316;8.114;2024-02-23T07:48:00;4.5;;;2.7;;
12721;SDS011;6425;50.316;8.114;2024-02-23T07:51:00;3.2;;;2.3;;
12721;SDS011;6425;50.316;8.114;2024-02-23T07:54:00;3.2;;;2.3;;
12721;SDS011;6425;50.316;8.114;2024-02-23T07:57:00;4.3;;;2.4;;
12721;SDS011;6425;50.316;8.114;2024-02-23T08:00:00;5.6;;;3;;
12721;SDS011;6425;50.316;8.114;2024-02-23T08:03:00;5.6;;;3;;
12721;SDS011;6425;50.316;8.114;2024-02-23T08:06:00;4;;;2.9;;
12721;SDS011;6425;50.316;8.114;2024-02-23T08:09:00;4;;;2.9;;
12721;SDS011;6425;50.316;8.114;2024-02-23T08:12:00;3.5;;;2.7;;
12721;SDS011;6425;50.316;8.114;2024-02-23T08:15:00;4.5;;;2;;
12721;SDS011;6425;50.316;8.114;2024-02-23T08:18:00;4.5;;;2;;
12721;SDS011;6425;50.316;8.114;2024-02-23T08:21:00;4.8;;;1.7;;
12721;SDS011;6425;50.316;8.114;2024-02-23T08:24:00;4.8;;;1.7;;
12721;SDS011;6425;50.316;8.114;2024-02-23T08:27:00;6.3;;;2;;
12721;SDS011;6425;50.316;8.114;2024-02-23T08:30:00;3.8;;;2.5;;
12721;SDS011;6425;50.316;8.114;2024-02-23T08:33:00;3.8;;;2.5;;
12721;SDS011;6425;50.316;8.114;2024-02-23T08:36:00;6.9;;;2.4;;
12721;SDS011;6425;50.316;8.114;2024-02-23T08:39:00;6.9;;;2.4;;
12721;SDS011;6425;50.316;8.114;2024-02-23T08:42:00;4.8;;;2.3;;
12721;SDS011;6425;50.316;8.114;2024-02-23T08:45:00;5.9;;;1.9;;
12721;SDS011;6425;50.316;8.114;2024-02-23T08:48:00;5.9;;;1.9;;
12721;SDS011;6425;50.316;8.114;2024-02-23T08:51:00;7.9;;;3.3;;
12721;SDS011;6425;50.316;8.114;2024-02-23T08:54:00;7.9;;;3.3;;
12721;SDS011;6425;50.316;8.114;2024-02-23T08:57:00;4.2;;;2.4;;
12721;SDS011;6425;50.316;8.114;2024-02-23T09:00:00;4.4;;;2.1;;
12721;SDS011;6425;50.316;8.114;2024-02-23T09:03:00;4.4;;;2.1;;
12721;SDS011;6425;50.316;8.114;2024-02-23T09:06:02;4.5;;;2;;
12721;SDS011;6425;50.316;8.114;2024-02-23T09:09:00;4.5;;;2;;
12721;SDS011;6425;50.316;8.114;2024-02-23T09:12:00;3.1;;;2.1;;
12721;SDS011;6425;50.316;8.114;2024-02-23T09:15:00;7.9;;;2.5;;
12721;SDS011;6425;50.316;8.114;2024-02-23T09:18:01;7.9;;;2.5;;
12721;SDS011;6425;50.316;8.114;2024-02-23T09:21:00;5.4;;;2.8;;
12721;SDS011;6425;50.316;8.114;2024-02-23T09:24:00;5.4;;;2.8;;
12721;SDS011;6425;50.316;8.114;2024-02-23T09:27:00;5.7;;;2.6;;
12721;SDS011;6425;50.316;8.114;2024-02-23T09:30:00;4.9;;;1.7;;
12721;SDS011;6425;50.316;8.114;2024-02-23T09:33:00;4.9;;;1.7;;
12721;SDS011;6425;50.316;8.114;2024-02-23T09:36:00;7.2;;;2.2;;
12721;SDS011;6425;50.316;8.114;2024-02-23T09:39:00;7.2;;;2.2;;
12721;SDS011;6425;50.316;8.114;2024-02-23T09:42:01;4.1;;;2.1;;
12721;SDS011;6425;50.316;8.114;2024-02-23T09:45:00;3.4;;;1.8;;
12721;SDS011;6425;50.316;8.114;2024-02-23T09:48:00;3.4;;;1.8;;
12721;SDS011;6425;50.316;8.114;2024-02-23T09:51:00;4.7;;;1.7;;
12721;SDS011;6425;50.316;8.114;2024-02-23T09:54:02;4.7;;;1.7;;
12721;SDS011;6425;50.316;8.114;2024-02-23T09:57:00;4.4;;;2.2;;
12721;SDS011;6425;50.316;8.114;2024-02-23T10:00:00;3.9;;;2.2;;
12721;SDS011;6425;50.316;8.114;2024-02-23T10:03:00;3.9;;;2.2;;
12721;SDS011;6425;50.316;8.114;2024-02-23T10:06:00;6.7;;;2.3;;
12721;SDS011;6425;50.316;8.114;2024-02-23T10:09:00;6.7;;;2.3;;
12721;SDS011;6425;50.316;8.114;2024-02-23T10:12:00;3.8;;;2.5;;
12721;SDS011;6425;50.316;8.114;2024-02-23T10:15:00;5.7;;;2.6;;
12721;SDS011;6425;50.316;8.114;2024-02-23T10:18:00;5.7;;;2.6;;
12721;SDS011;6425;50.316;8.114;2024-02-23T10:21:00;4.1;;;2.6;;
12721;SDS011;6425;50.316;8.114;2024-02-23T10:24:00;4.1;;;2.6;;
12721;SDS011;6425;50.316;8.114;2024-02-23T10:27:00;4.2;;;3.2;;
12721;SDS011;6425;50.316;8.114;2024-02-23T10:30:01;4.2;;;2.6;;
12721;SDS011;6425;50.316;8.114;2024-02-23T10:33:00;4.2;;;2.6;;
12721;SDS011;6425;50.316;8.114;2024-02-23T10:36:00;2.7;;;2;;
12721;SDS011;6425;50.316;8.114;2024-02-23T10:39:00;3.1;;;2;;
12721;SDS011;6425;50.316;8.114;2024-02-23T10:42:02;4.3;;;2.3;;
12721;SDS011;6425;50.316;8.114;2024-02-23T10:45:00;5.5;;;2.5;;
12721;SDS011;6425;50.316;8.114;2024-02-23T10:48:00;5.5;;;2.5;;
12721;SDS011;6425;50.316;8.114;2024-02-23T10:51:00;3.7;;;3.1;;
12721;SDS011;6425;50.316;8.114;2024-02-23T10:54:00;6.3;;;1.7;;
12721;SDS011;6425;50.316;8.114;2024-02-23T10:57:00;6.3;;;1.7;;
12721;SDS011;6425;50.316;8.114;2024-02-23T11:00:00;4.9;;;1.1;;
12721;SDS011;6425;50.316;8.114;2024-02-23T11:03:00;4.9;;;1.1;;
12721;SDS011;6425;50.316;8.114;2024-02-23T11:06:00;4.5;;;1.3;;
12721;SDS011;6425;50.316;8.114;2024-02-23T11:09:07;6.9;;;1.3;;
12721;SDS011;6425;50.316;8.114;2024-02-23T11:12:03;6.9;;;1.3;;
12721;SDS011;6425;50.316;8.114;2024-02-23T11:15:00;3.1;;;1.5;;
12721;SDS011;6425;50.316;8.114;2024-02-23T11:18:01;3.1;;;1.5;;
12721;SDS011;6425;50.316;8.114;2024-02-23T11:21:00;3.3;;;0.9;;
12721;SDS011;6425;50.316;8.114;2024-02-23T11:24:01;3.1;;;0.7;;
12721;SDS011;6425;50.316;8.114;2024-02-23T11:27:00;3.1;;;0.7;;
12721;SDS011;6425;50.316;8.114;2024-02-23T11:30:02;3.5;;;0.6;;
12721;SDS011;6425;50.316;8.114;2024-02-23T11:33:00;3.5;;;0.6;;
12721;SDS011;6425;50.316;8.114;2024-02-23T11:36:07;3.4;;;1;;
12721;SDS011;6425;50.316;8.114;2024-02-23T11:39:00;3.9;;;1.7;;
12721;SDS011;6425;50.316;8.114;2024-02-23T11:42:00;3.9;;;1.7;;
12721;SDS011;6425;50.316;8.114;2024-02-23T11:45:00;3;;;1.9;;
12721;SDS011;6425;50.316;8.114;2024-02-23T11:48:00;3;;;1.9;;
12721;SDS011;6425;50.316;8.114;2024-02-23T11:51:00;4.1;;;2.2;;
12721;SDS011;6425;50.316;8.114;2024-02-23T11:54:00;2.8;;;2.2;;
12721;SDS011;6425;50.316;8.114;2024-02-23T11:57:00;2.8;;;2.2;;
12721;SDS011;6425;50.316;8.114;2024-02-23T12:00:00;2.9;;;2.7;;
12721;SDS011;6425;50.316;8.114;2024-02-23T12:03:00;2.9;;;2.7;;
12721;SDS011;6425;50.316;8.114;2024-02-23T12:06:01;3.4;;;2.2;;
12721;SDS011;6425;50.316;8.114;2024-02-23T12:09:00;5.5;;;3.3;;
12721;SDS011;6425;50.316;8.114;2024-02-23T12:12:00;5.5;;;3.3;;
12721;SDS011;6425;50.316;8.114;2024-02-23T12:15:00;4.7;;;2.4;;
12721;SDS011;6425;50.316;8.114;2024-02-23T12:18:00;4.7;;;2.4;;
12721;SDS011;6425;50.316;8.114;2024-02-23T12:21:00;3.8;;;3.5;;
12721;SDS011;6425;50.316;8.114;2024-02-23T12:24:00;3.2;;;2.9;;
12721;SDS011;6425;50.316;8.114;2024-02-23T12:27:00;3.2;;;2.9;;
12721;SDS011;6425;50.316;8.114;2024-02-23T12:30:01;3.4;;;3.1;;
12721;SDS011;6425;50.316;8.114;2024-02-23T12:33:03;3.4;;;3.1;;
12721;SDS011;6425;50.316;8.114;2024-02-23T12:36:00;5;;;4;;
12721;SDS011;6425;50.316;8.114;2024-02-23T12:39:00;4.5;;;4.1;;
12721;SDS011;6425;50.316;8.114;2024-02-23T12:42:00;4.5;;;4.1;;
12721;SDS011;6425;50.316;8.114;2024-02-23T12:45:00;5.6;;;5;;
12721;SDS011;6425;50.316;8.114;2024-02-23T12:48:00;5.6;;;5;;
12721;SDS011;6425;50.316;8.114;2024-02-23T12:51:00;4.5;;;4.2;;
12721;SDS011;6425;50.316;8.114;2024-02-23T12:54:02;4.1;;;3.8;;
12721;SDS011;6425;50.316;8.114;2024-02-23T12:57:00;4.1;;;3.8;;
12721;SDS011;6425;50.316;8.114;2024-02-23T13:00:00;4.7;;;4.1;;
12721;SDS011;6425;50.316;8.114;2024-02-23T13:03:00;4.7;;;4.1;;
12721;SDS011;6425;50.316;8.114;2024-02-23T13:06:00;4.4;;;4.1;;
12721;SDS011;6425;50.316;8.114;2024-02-23T13:09:00;4.2;;;3.8;;
12721;SDS011;6425;50.316;8.114;2024-02-23T13:12:00;4.2;;;3.8;;
12721;SDS011;6425;50.316;8.114;2024-02-23T13:15:00;4.1;;;3;;
12721;SDS011;6425;50.316;8.114;2024-02-23T13:18:00;4.1;;;3;;
12721;SDS011;6425;50.316;8.114;2024-02-23T13:21:00;4.3;;;4;;
12721;SDS011;6425;50.316;8.114;2024-02-23T13:24:00;3.8;;;3.5;;
12721;SDS011;6425;50.316;8.114;2024-02-23T13:27:00;3.8;;;3.5;;
12721;SDS011;6425;50.316;8.114;2024-02-23T13:30:00;4.3;;;4;;
12721;SDS011;6425;50.316;8.114;2024-02-23T13:33:00;4.3;;;4;;
12721;SDS011;6425;50.316;8.114;2024-02-23T13:36:00;4.1;;;3.7;;
12721;SDS011;6425;50.316;8.114;2024-02-23T13:39:00;5.1;;;4.7;;
12721;SDS011;6425;50.316;8.114;2024-02-23T13:42:00;5.1;;;4.7;;
12721;SDS011;6425;50.316;8.114;2024-02-23T13:45:00;4.4;;;4.1;;
12721;SDS011;6425;50.316;8.114;2024-02-23T13:48:00;5.1;;;4.7;;
12721;SDS011;6425;50.316;8.114;2024-02-23T13:51:00;5.9;;;5.4;;
12721;SDS011;6425;50.316;8.114;2024-02-23T13:54:00;6.7;;;6.2;;
12721;SDS011;6425;50.316;8.114;2024-02-23T13:57:00;6.7;;;6.2;;
12721;SDS011;6425;50.316;8.114;2024-02-23T14:00:00;6.7;;;6.2;;
12721;SDS011;6425;50.316;8.114;2024-02-23T14:03:00;6.9;;;6.3;;
12721;SDS011;6425;50.316;8.114;2024-02-23T14:06:00;6.9;;;6.3;;
12721;SDS011;6425;50.316;8.114;2024-02-23T14:09:00;6.3;;;5.8;;
12721;SDS011;6425;50.316;8.114;2024-02-23T14:12:00;6.3;;;5.8;;
12721;SDS011;6425;50.316;8.114;2024-02-23T14:15:00;7.2;;;5.5;;
12721;SDS011;6425;50.316;8.114;2024-02-23T14:18:00;7;;;5.6;;
12721;SDS011;6425;50.316;8.114;2024-02-23T14:21:00;6.5;;;6;;
12721;SDS011;6425;50.316;8.114;2024-02-23T14:24:00;6.6;;;6.1;;
12721;SDS011;6425;50.316;8.114;2024-02-23T14:27:00;6.6;;;6.1;;
12721;SDS011;6425;50.316;8.114;2024-02-23T14:30:00;6.8;;;6.4;;
12721;SDS011;6425;50.316;8.114;2024-02-23T14:33:00;6.5;;;6.1;;
12721;SDS011;6425;50.316;8.114;2024-02-23T14:36:00;6.5;;;6.1;;
12721;SDS011;6425;50.316;8.114;2024-02-23T14:39:00;7.7;;;6.9;;
12721;SDS011;6425;50.316;8.114;2024-02-23T14:42:00;7.7;;;6.9;;
12721;SDS011;6425;50.316;8.114;2024-02-23T14:45:00;6.8;;;6.4;;
12721;SDS011;6425;50.316;8.114;2024-02-23T14:48:00;7.9;;;7.3;;
12721;SDS011;6425;50.316;8.114;2024-02-23T14:51:00;7.9;;;7.3;;
12721;SDS011;6425;50.316;8.114;2024-02-23T14:54:00;7.8;;;6.9;;
12721;SDS011;6425;50.316;8.114;2024-02-23T14:57:00;7.8;;;6.9;;
12721;SDS011;6425;50.316;8.114;2024-02-23T15:00:00;7.9;;;7.3;;
12721;SDS011;6425;50.316;8.114;2024-02-23T15:03:00;8.7;;;8;;
12721;SDS011;6425;50.316;8.114;2024-02-23T15:06:00;8.7;;;8;;
12721;SDS011;6425;50.316;8.114;2024-02-23T15:09:00;8.3;;;7.5;;
12721;SDS011;6425;50.316;8.114;2024-02-23T15:12:00;8.3;;;7.5;;
12721;SDS011;6425;50.316;8.114;2024-02-23T15:15:00;8;;;7.4;;
12721;SDS011;6425;50.316;8.114;2024-02-23T15:18:00;8.3;;;7.7;;
12721;SDS011;6425;50.316;8.114;2024-02-23T15:21:00;8.3;;;7.7;;
12721;SDS011;6425;50.316;8.114;2024-02-23T15:24:00;10.7;;;10;;
12721;SDS011;6425;50.316;8.114;2024-02-23T15:27:00;10.7;;;10;;
12721;SDS011;6425;50.316;8.114;2024-02-23T15:30:00;9.1;;;8.5;;
12721;SDS011;6425;50.316;8.114;2024-02-23T15:33:00;9.8;;;9;;
12721;SDS011;6425;50.316;8.114;2024-02-23T15:36:00;9.8;;;9;;
12721;SDS011;6425;50.316;8.114;2024-02-23T15:39:00;9.6;;;8.9;;
12721;SDS011;6425;50.316;8.114;2024-02-23T15:42:00;9.6;;;8.9;;
12721;SDS011;6425;50.316;8.114;2024-02-23T15:45:01;9.1;;;8.5;;
12721;SDS011;6425;50.316;8.114;2024-02-23T15:48:00;9.1;;;8.5;;
12721;SDS011;6425;50.316;8.114;2024-02-23T15:51:00;9.1;;;8.5;;
12721;SDS011;6425;50.316;8.114;2024-02-23T15:54:00;10.1;;;9.4;;
12721;SDS011;6425;50.316;8.114;2024-02-23T15:57:00;10.1;;;9.4;;
12721;SDS011;6425;50.316;8.114;2024-02-23T16:00:00;9.2;;;8.7;;
12721;SDS011;6425;50.316;8.114;2024-02-23T16:03:00;9.2;;;8.7;;
12721;SDS011;6425;50.316;8.114;2024-02-23T16:06:00;9.2;;;8.7;;
12721;SDS011;6425;50.316;8.114;2024-02-23T16:09:00;10;;;9.3;;
12721;SDS011;6425;50.316;8.114;2024-02-23T16:12:00;10;;;9.3;;
12721;SDS011;6425;50.316;8.114;2024-02-23T16:15:00;9.1;;;8.6;;
12721;SDS011;6425;50.316;8.114;2024-02-23T16:18:00;9.7;;;9.1;;
12721;SDS011;6425;50.316;8.114;2024-02-23T16:21:00;9.7;;;9.1;;
12721;SDS011;6425;50.316;8.114;2024-02-23T16:24:00;9.4;;;8.8;;
12721;SDS011;6425;50.316;8.114;2024-02-23T16:27:00;9.4;;;8.8;;
12721;SDS011;6425;50.316;8.114;2024-02-23T16:30:00;9.6;;;9;;
12721;SDS011;6425;50.316;8.114;2024-02-23T16:33:00;10.2;;;9.4;;
12721;SDS011;6425;50.316;8.114;2024-02-23T16:36:00;10.2;;;9.4;;
12721;SDS011;6425;50.316;8.114;2024-02-23T16:39:00;9.7;;;9;;
12721;SDS011;6425;50.316;8.114;2024-02-23T16:42:00;9.7;;;9;;
12721;SDS011;6425;50.316;8.114;2024-02-23T16:45:00;8.7;;;8.2;;
12721;SDS011;6425;50.316;8.114;2024-02-23T16:48:00;8.5;;;7.9;;
12721;SDS011;6425;50.316;8.114;2024-02-23T16:51:00;8.5;;;7.9;;
12721;SDS011;6425;50.316;8.114;2024-02-23T16:54:00;8.2;;;7.6;;
12721;SDS011;6425;50.316;8.114;2024-02-23T16:57:00;8.2;;;7.6;;
12721;SDS011;6425;50.316;8.114;2024-02-23T17:00:00;7.9;;;7.3;;
12721;SDS011;6425;50.316;8.114;2024-02-23T17:03:00;8.4;;;7.8;;
12721;SDS011;6425;50.316;8.114;2024-02-23T17:06:00;8.4;;;7.8;;
12721;SDS011;6425;50.316;8.114;2024-02-23T17:09:01;7.6;;;7;;
12721;SDS011;6425;50.316;8.114;2024-02-23T17:12:00;8.6;;;8;;
12721;SDS011;6425;50.316;8.114;2024-02-23T17:15:00;8.6;;;8;;
12721;SDS011;6425;50.316;8.114;2024-02-23T17:18:00;6.6;;;6.1;;
12721;SDS011;6425;50.316;8.114;2024-02-23T17:21:00;6.6;;;6.1;;
12721;SDS011;6425;50.316;8.114;2024-02-23T17:24:00;5.5;;;5;;
12721;SDS011;6425;50.316;8.114;2024-02-23T17:27:00;5.5;;;5;;
12721;SDS011;6425;50.316;8.114;2024-02-23T17:30:00;5.5;;;5;;
12721;SDS011;6425;50.316;8.114;2024-02-23T17:33:00;3.3;;;3;;
12721;SDS011;6425;50.316;8.114;2024-02-23T17:36:00;3.3;;;3;;
12721;SDS011;6425;50.316;8.114;2024-02-23T17:39:00;3.8;;;2.4;;
12721;SDS011;6425;50.316;8.114;2024-02-23T17:42:00;3.5;;;2.1;;
12721;SDS011;6425;50.316;8.114;2024-02-23T17:45:00;3.5;;;2.1;;
12721;SDS011;6425;50.316;8.114;2024-02-23T17:48:00;3.7;;;2.1;;
12721;SDS011;6425;50.316;8.114;2024-02-23T17:51:00;3.7;;;2.1;;
12721;SDS011;6425;50.316;8.114;2024-02-23T17:54:00;2;;;1.6;;
12721;SDS011;6425;50.316;8.114;2024-02-23T17:57:00;3.8;;;1.5;;
12721;SDS011;6425;50.316;8.114;2024-02-23T18:00:00;3.8;;;1.5;;
12721;SDS011;6425;50.316;8.114;2024-02-23T18:03:00;3.1;;;1.2;;
12721;SDS011;6425;50.316;8.114;2024-02-23T18:06:00;3.1;;;1.2;;
12721;SDS011;6425;50.316;8.114;2024-02-23T18:09:00;2.9;;;1.2;;
12721;SDS011;6425;50.316;8.114;2024-02-23T18:12:00;3.1;;;0.8;;
12721;SDS011;6425;50.316;8.114;2024-02-23T18:15:00;3.1;;;0.8;;
12721;SDS011;6425;50.316;8.114;2024-02-23T18:18:00;1.6;;;0.6;;
12721;SDS011;6425;50.316;8.114;2024-02-23T18:21:02;1.6;;;0.6;;
12721;SDS011;6425;50.316;8.114;2024-02-23T18:24:00;1.7;;;0.8;;
12721;SDS011;6425;50.316;8.114;2024-02-23T18:27:00;2.3;;;0.5;;
12721;SDS011;6425;50.316;8.114;2024-02-23T18:30:00;2.3;;;0.5;;
12721;SDS011;6425;50.316;8.114;2024-02-23T18:33:00;4.4;;;0.7;;
12721;SDS011;6425;50.316;8.114;2024-02-23T18:36:00;4.4;;;0.7;;
12721;SDS011;6425;50.316;8.114;2024-02-23T18:39:00;3;;;0.7;;
12721;SDS011;6425;50.316;8.114;2024-02-23T18:42:00;2.2;;;1;;
12721;SDS011;6425;50.316;8.114;2024-02-23T18:45:01;2.2;;;1;;
12721;SDS011;6425;50.316;8.114;2024-02-23T18:48:00;3.1;;;1;;
12721;SDS011;6425;50.316;8.114;2024-02-23T18:51:00;3.1;;;1;;
12721;SDS011;6425;50.316;8.114;2024-02-23T18:54:00;6.4;;;1.5;;
12721;SDS011;6425;50.316;8.114;2024-02-23T18:57:00;2;;;0.5;;
12721;SDS011;6425;50.316;8.114;2024-02-23T19:00:00;2;;;0.5;;
12721;SDS011;6425;50.316;8.114;2024-02-23T19:03:00;11.5;;;3.9;;